»·PEaware :: N507FL KSAN-KSBD

N507FL :: KSAN-KSBD

FLIGHT INFORMATION

Flight Status: Arrived
Operator: Privately registered:
United States
More flights under this callsign
Pilot: Matthew M. (27617)
Aircraft: SOCATA TBM-900
(TBM9)
More flights by this aircraft type
Origin: KSAN San Diego Intl-Lindbergh
United States
Destination: KSBD San Bernardino Intl
United States
More flights between these airports :: More routes between these airports
Route: V186 TANNR HDF PETIS
File this flight plan on PilotEdge
Remarks: NO SIDS, NO STARS
Altitude:
(Current/Filed)
20,000ft
Speed:
(Current/Filed)
300kts
Departed: 01-Feb-20 06:18 PM
Arrived: 01-Feb-20 07:05 PM
Distance/Time
Traveled:
82nm/0:47
Distance/Time
To Go:
Arrived

Flight Plot

Page will automatically refresh every two minutes.


Map Options




Map Legend


Flown Route
Filed Route
Departure Airport
Arrival Airport
Navaid (VOR, NDB)
Fix

Horizontal Profiles

Position Reports

Time Latitude Longitude Heading Altitude Ground
Speed
01-Feb-20 17:54 32.734268 -117.185251 195 16ft 0kts
01-Feb-20 17:55 32.734268 -117.185251 195 16ft 0kts
01-Feb-20 17:56 32.734268 -117.185251 195 16ft 0kts
01-Feb-20 17:57 32.734268 -117.185251 195 16ft 0kts
01-Feb-20 17:58 32.734268 -117.185251 195 16ft 0kts
01-Feb-20 17:59 32.734268 -117.185251 195 16ft 0kts
01-Feb-20 18:00 32.734268 -117.185251 195 16ft 0kts
01-Feb-20 18:01 32.734268 -117.185251 195 16ft 0kts
01-Feb-20 18:02 32.734268 -117.185251 195 16ft 0kts
01-Feb-20 18:03 32.734268 -117.185251 195 16ft 0kts
01-Feb-20 18:04 32.734268 -117.185251 195 16ft 0kts
01-Feb-20 18:05 32.734268 -117.185251 195 16ft 0kts
01-Feb-20 18:06 32.734268 -117.185251 195 16ft 0kts
01-Feb-20 18:07 32.734268 -117.185251 195 16ft 0kts
01-Feb-20 18:08 32.734268 -117.185251 195 16ft 0kts
01-Feb-20 18:09 32.734268 -117.185251 195 16ft 0kts
01-Feb-20 18:10 32.734268 -117.185251 195 16ft 0kts
01-Feb-20 18:11 32.734268 -117.185251 195 16ft 0kts
01-Feb-20 18:12 32.734268 -117.185251 195 16ft 0kts
01-Feb-20 18:13 32.733350 -117.184024 106 16ft 26kts
01-Feb-20 18:14 32.731878 -117.178011 106 20ft 29kts
01-Feb-20 18:15 32.730696 -117.175299 157 21ft 0kts
01-Feb-20 18:16 32.730696 -117.175299 157 21ft 0kts
01-Feb-20 18:17 32.730653 -117.177855 287 19ft 67kts
01-Feb-20 18:18 32.737879 -117.203875 292 684ft 141kts
01-Feb-20 18:19 32.744665 -117.240598 284 1889ft 153kts
01-Feb-20 18:20 32.750105 -117.283613 286 3306ft 153kts
01-Feb-20 18:21 32.755288 -117.330254 280 4610ft 159kts
01-Feb-20 18:22 32.768459 -117.378061 313 5769ft 162kts
01-Feb-20 18:24 32.801701 -117.393265 348 6852ft 155kts
01-Feb-20 18:25 32.836644 -117.402178 351 7821ft 152kts
01-Feb-20 18:26 32.876420 -117.409061 11 8143ft 173kts
01-Feb-20 18:27 32.910897 -117.389618 28 8105ft 194kts
01-Feb-20 18:28 32.945998 -117.366635 25 8146ft 193kts
01-Feb-20 18:29 32.981433 -117.348261 23 7966ft 212kts
01-Feb-20 18:30 33.020651 -117.329688 20 8027ft 229kts
01-Feb-20 18:31 33.063330 -117.312817 18 8028ft 237kts
01-Feb-20 18:32 33.104879 -117.296850 17 8026ft 239kts
01-Feb-20 18:33 33.143345 -117.282280 18 7997ft 242kts
01-Feb-20 18:34 33.178848 -117.266395 23 9557ft 200kts
01-Feb-20 18:35 33.211996 -117.248866 22 10176ft 219kts
01-Feb-20 18:36 33.250740 -117.230999 19 10036ft 242kts
01-Feb-20 18:37 33.291363 -117.214849 16 10260ft 238kts
01-Feb-20 18:38 33.334435 -117.201586 13 10176ft 241kts
01-Feb-20 18:39 33.377814 -117.189993 13 10023ft 246kts
01-Feb-20 18:40 33.420583 -117.178451 14 10133ft 244kts
01-Feb-20 18:41 33.464740 -117.169130 5 10321ft 241kts
01-Feb-20 18:42 33.509868 -117.168344 357 10034ft 256kts
01-Feb-20 18:42 33.547411 -117.171069 357 10135ft 249kts
01-Feb-20 18:44 33.599920 -117.177751 354 9962ft 250kts
01-Feb-20 18:45 33.643706 -117.184487 355 9990ft 251kts
01-Feb-20 18:45 33.679809 -117.188149 357 10022ft 248kts
01-Feb-20 18:46 33.722930 -117.192000 356 9878ft 253kts
01-Feb-20 18:48 33.771752 -117.199839 341 10100ft 252kts
01-Feb-20 18:48 33.801863 -117.228764 303 8511ft 284kts
01-Feb-20 18:49 33.821154 -117.279568 290 7578ft 257kts
01-Feb-20 18:50 33.836151 -117.329085 296 6725ft 247kts
01-Feb-20 18:51 33.865089 -117.365183 342 5807ft 240kts
01-Feb-20 18:52 33.903336 -117.366976 6 4567ft 218kts
01-Feb-20 18:53 33.936035 -117.362437 6 3960ft 187kts
01-Feb-20 18:54 33.963380 -117.360192 2 3815ft 157kts
01-Feb-20 18:55 33.988023 -117.360019 357 3920ft 162kts
01-Feb-20 18:56 34.015849 -117.360418 4 4303ft 176kts
01-Feb-20 18:57 34.039671 -117.355136 15 4029ft 125kts
01-Feb-20 18:58 34.058877 -117.343106 42 3325ft 134kts
01-Feb-20 18:59 34.071318 -117.317938 65 2619ft 127kts
01-Feb-20 19:00 34.078449 -117.291840 71 2332ft 126kts
01-Feb-20 19:01 34.085367 -117.268849 69 1804ft 92kts
01-Feb-20 19:02 34.090927 -117.249609 71 1166ft 83kts
01-Feb-20 19:03 34.094683 -117.236954 73 1111ft 45kts
01-Feb-20 19:04 34.096191 -117.236304 334 1113ft 10kts
01-Feb-20 19:05 34.097972 -117.232030 70 1124ft 33kts
01-Feb-20 19:06 34.100086 -117.226732 40 1138ft 24kts
01-Feb-20 19:07 34.102032 -117.224469 265 1146ft 0kts
01-Feb-20 19:08 34.102032 -117.224469 265 1146ft 0kts
01-Feb-20 19:09 34.102032 -117.224468 265 1146ft 0kts
01-Feb-20 19:10 34.102032 -117.224468 265 1146ft 0kts
01-Feb-20 19:11 34.102032 -117.224468 265 1146ft 0kts
01-Feb-20 19:12 34.102032 -117.224468 265 1146ft 0kts
01-Feb-20 19:13 34.102032 -117.224468 265 1146ft 0kts

Navigation Log

Ident Type
Flight plan parsing failed, navigation log unavailable